Time;durP1;ratioP1;P1;durP2;ratioP2;P2;SDS_P1;SDS_P2;PMS_P1;PMS_P2;Temp;Humidity;BMP_temperature;BMP_pressure;BME280_temperature;BME280_humidity;BME280_pressure;Samples;Min_cycle;Max_cycle;Signal;HPM_P1;HPM_P2
2022/01/16 00:00:20;;;;;;;72.55;26.80;;;2.30;99.90;;;;;;5044502;28;20130;-79
2022/01/16 00:05:31;;;;;;;74.63;28.38;;;2.30;99.90;;;;;;5081520;28;20048;-81
2022/01/16 00:07:57;;;;;;;76.47;29.70;;;2.30;99.90;;;;;;5048916;28;20051;-80
2022/01/16 00:10:25;;;;;;;65.38;26.80;;;2.50;99.90;;;;;;5063997;28;20083;-79
2022/01/16 00:12:52;;;;;;;70.80;29.60;;;2.20;99.90;;;;;;5064775;28;20051;-79
2022/01/16 00:15:22;;;;;;;69.68;28.27;;;3.30;99.90;;;;;;5048081;28;20036;-79
2022/01/16 00:18:19;;;;;;;73.47;28.20;;;2.30;99.90;;;;;;5080761;28;20040;-80
2022/01/16 00:20:35;;;;;;;78.07;29.17;;;3.60;99.90;;;;;;5078316;28;20122;-80
2022/01/16 00:23:04;;;;;;;73.00;27.90;;;2.60;99.90;;;;;;5080983;28;20080;-79
2022/01/16 00:25:30;;;;;;;73.40;29.33;;;2.20;99.90;;;;;;5062737;28;20134;-79
2022/01/16 00:27:56;;;;;;;73.10;28.63;;;2.20;99.90;;;;;;5064883;28;20129;-79
2022/01/16 00:30:22;;;;;;;79.80;29.33;;;2.20;99.90;;;;;;5046510;28;20052;-80
2022/01/16 00:32:50;;;;;;;77.20;30.50;;;2.70;99.90;;;;;;5064176;28;20059;-79
2022/01/16 00:35:16;;;;;;;78.90;29.52;;;2.60;99.90;;;;;;5046839;28;20401;-79
2022/01/16 00:37:42;;;;;;;87.85;31.67;;;2.20;99.90;;;;;;5063284;28;20058;-79
2022/01/16 00:40:10;;;;;;;89.60;31.17;;;2.20;99.90;;;;;;5047870;28;20052;-80
2022/01/16 00:42:36;;;;;;;85.65;30.23;;;2.20;99.90;;;;;;5080975;28;20055;-80
2022/01/16 00:45:03;;;;;;;87.07;31.42;;;2.20;99.90;;;;;;5029760;28;20040;-80
2022/01/16 00:47:29;;;;;;;83.78;29.88;;;2.20;99.90;;;;;;5080598;28;20047;-80
2022/01/16 00:49:54;;;;;;;92.65;30.38;;;2.20;99.90;;;;;;5063252;28;20459;-79
2022/01/16 00:52:20;;;;;;;88.25;30.90;;;3.00;99.90;;;;;;5047864;28;20043;-79
2022/01/16 00:54:46;;;;;;;87.20;30.10;;;3.60;99.90;;;;;;5047664;28;20044;-79
2022/01/16 00:57:12;;;;;;;93.38;30.38;;;2.70;99.90;;;;;;5047791;28;20080;-79
2022/01/16 00:59:40;;;;;;;100.70;31.90;;;2.60;99.90;;;;;;5063528;28;20136;-79
2022/01/16 01:02:06;;;;;;;82.65;29.35;;;2.30;99.90;;;;;;5047482;28;20113;-80
2022/01/16 01:04:32;;;;;;;92.28;30.02;;;2.30;99.90;;;;;;5062940;28;20051;-79
2022/01/16 01:06:57;;;;;;;90.43;31.15;;;2.30;99.90;;;;;;5063666;28;20051;-79
2022/01/16 01:09:24;;;;;;;91.18;29.95;;;2.30;99.90;;;;;;5063170;28;20048;-79
2022/01/16 01:11:50;;;;;;;91.72;31.27;;;3.00;99.90;;;;;;5063165;28;20052;-79
2022/01/16 01:14:40;;;;;;;102.97;31.55;;;2.30;99.90;;;;;;5046267;28;20060;-79
2022/01/16 01:17:08;;;;;;;111.82;31.85;;;2.30;99.90;;;;;;5046898;28;20071;-79
2022/01/16 01:19:35;;;;;;;98.80;31.30;;;3.50;99.90;;;;;;5046079;28;20047;-79
2022/01/16 01:22:04;;;;;;;103.53;32.60;;;2.30;99.90;;;;;;5046495;28;20470;-79
2022/01/16 01:24:31;;;;;;;125.13;34.33;;;2.40;99.90;;;;;;5079749;28;20054;-80
2022/01/16 01:27:13;;;;;;;104.57;31.92;;;3.50;99.90;;;;;;5078800;28;20519;-79
2022/01/16 01:29:43;;;;;;;122.97;34.58;;;2.90;99.90;;;;;;5063742;28;20443;-79
2022/01/16 01:32:09;;;;;;;126.85;36.40;;;3.80;99.90;;;;;;5064040;28;20409;-79
2022/01/16 01:34:35;;;;;;;115.00;33.47;;;2.80;99.90;;;;;;5029670;28;20048;-80
2022/01/16 01:37:00;;;;;;;108.60;33.60;;;2.50;99.90;;;;;;5047012;28;20143;-79
2022/01/16 01:39:26;;;;;;;137.63;36.22;;;2.50;99.90;;;;;;5045960;28;20052;-79
2022/01/16 01:42:03;;;;;;;126.38;35.28;;;3.80;99.90;;;;;;5062246;28;20054;-79
2022/01/16 01:52:41;;;;;;;120.07;35.80;;;3.70;99.90;;;;;;5078825;28;20127;-79
2022/01/16 01:55:08;;;;;;;135.45;37.80;;;2.80;99.90;;;;;;5070649;28;20452;-81
2022/01/16 01:57:33;;;;;;;132.93;37.53;;;2.80;99.90;;;;;;5047154;28;20044;-80
2022/01/16 01:59:59;;;;;;;131.93;38.22;;;4.10;99.90;;;;;;5064354;28;20059;-80
2022/01/16 02:02:29;;;;;;;130.57;37.58;;;2.80;99.90;;;;;;5061265;28;20048;-79
2022/01/16 02:04:55;;;;;;;144.00;41.17;;;2.90;99.90;;;;;;5046291;28;20055;-80
2022/01/16 02:07:21;;;;;;;122.03;37.50;;;3.40;99.90;;;;;;5062708;28;20481;-80
2022/01/16 02:09:46;;;;;;;139.77;39.40;;;2.90;99.90;;;;;;5046177;28;20059;-79
2022/01/16 02:12:12;;;;;;;119.43;36.67;;;2.90;99.90;;;;;;5062420;28;20048;-80
2022/01/16 02:14:58;;;;;;;125.90;37.53;;;3.00;99.90;;;;;;5046110;28;20083;-80
2022/01/16 02:28:40;;;;;;;131.02;39.53;;;3.10;99.90;;;;;;5078519;28;20063;-79
2022/01/16 02:36:35;;;;;;;110.50;36.22;;;3.20;99.90;;;;;;5077367;28;20052;-80
2022/01/16 02:39:07;;;;;;;106.03;35.88;;;4.00;99.90;;;;;;5062718;28;20047;-80
2022/01/16 02:41:34;;;;;;;117.43;36.15;;;3.20;99.90;;;;;;5078739;28;20142;-79
2022/01/16 02:44:02;;;;;;;127.13;38.15;;;3.20;99.90;;;;;;5070429;28;20052;-79
2022/01/16 02:48:54;;;;;;;121.70;37.22;;;3.30;99.90;;;;;;5061623;28;20142;-79
2022/01/16 02:51:26;;;;;;;123.05;38.60;;;3.30;99.90;;;;;;5061335;28;20131;-80
2022/01/16 02:53:52;;;;;;;120.20;38.08;;;3.30;99.90;;;;;;5086586;28;20048;-79
2022/01/16 02:56:19;;;;;;;129.48;38.30;;;4.60;99.90;;;;;;5060440;28;20040;-79
2022/01/16 02:58:46;;;;;;;139.43;41.08;;;4.30;99.90;;;;;;5044879;28;20106;-80
2022/01/16 03:01:13;;;;;;;123.00;38.75;;;4.60;99.90;;;;;;5044369;28;20143;-79
2022/01/16 03:03:39;;;;;;;122.72;39.35;;;3.40;99.90;;;;;;5044046;28;20512;-80
2022/01/16 03:06:05;;;;;;;116.03;37.35;;;3.40;99.90;;;;;;5078066;28;20427;-80
2022/01/16 03:08:31;;;;;;;130.10;39.90;;;4.10;99.90;;;;;;5045101;28;20056;-79
2022/01/16 03:13:31;;;;;;;121.63;39.30;;;3.50;99.90;;;;;;5078662;28;20127;-79
2022/01/16 03:15:57;;;;;;;125.75;40.45;;;4.30;99.90;;;;;;5061180;28;20377;-80
2022/01/16 03:23:33;;;;;;;109.82;38.45;;;4.10;99.90;;;;;;5078957;28;20051;-79
2022/01/16 03:25:59;;;;;;;110.90;42.42;;;4.60;99.90;;;;;;5043744;28;20040;-79
2022/01/16 03:28:26;;;;;;;112.05;37.58;;;3.70;99.90;;;;;;5062612;28;20401;-79
2022/01/16 03:30:56;;;;;;;110.22;38.25;;;4.90;99.90;;;;;;5061233;28;20091;-79
2022/01/16 03:33:22;;;;;;;97.22;34.88;;;3.80;99.90;;;;;;5077004;28;20051;-80
2022/01/16 03:35:48;;;;;;;92.13;36.10;;;4.50;99.90;;;;;;5079384;28;20082;-79
2022/01/16 03:38:15;;;;;;;100.97;35.47;;;5.10;99.90;;;;;;5065426;28;20408;-79
2022/01/16 03:40:42;;;;;;;94.75;35.83;;;4.70;99.90;;;;;;5081134;28;20052;-80
2022/01/16 03:43:14;;;;;;;100.97;36.95;;;3.90;99.90;;;;;;5049561;28;20040;-79
2022/01/16 03:45:45;;;;;;;89.72;32.97;;;4.10;99.90;;;;;;5041574;28;20087;-80
2022/01/16 03:48:11;;;;;;;79.05;31.60;;;4.10;99.90;;;;;;5064716;28;20052;-80
2022/01/16 03:50:37;;;;;;;80.18;32.22;;;4.10;99.90;;;;;;5032439;28;20159;-80
2022/01/16 03:53:04;;;;;;;86.32;33.25;;;4.60;99.90;;;;;;5048309;28;20154;-79
2022/01/16 03:55:31;;;;;;;86.57;32.35;;;5.40;99.90;;;;;;5082947;28;20141;-79
2022/01/16 03:57:57;;;;;;;81.18;32.88;;;4.40;99.90;;;;;;5064869;28;20040;-80
2022/01/16 04:00:23;;;;;;;74.13;30.88;;;5.10;99.90;;;;;;5080833;28;20097;-79
2022/01/16 04:02:49;;;;;;;80.95;31.48;;;4.20;99.90;;;;;;5063898;28;20048;-79
2022/01/16 04:05:15;;;;;;;75.35;31.02;;;5.60;99.90;;;;;;5065144;28;20054;-79
2022/01/16 04:07:40;;;;;;;73.40;28.70;;;4.30;99.90;;;;;;5065156;28;20299;-80
2022/01/16 04:10:08;;;;;;;76.57;30.17;;;4.30;99.90;;;;;;5064437;28;20051;-79
2022/01/16 04:12:35;;;;;;;62.58;29.42;;;4.30;99.90;;;;;;5080779;28;20047;-81
2022/01/16 04:17:27;;;;;;;59.05;27.63;;;4.40;99.90;;;;;;5080237;28;20504;-80
2022/01/16 04:19:53;;;;;;;57.70;27.52;;;5.50;99.90;;;;;;5063547;28;20097;-81
2022/01/16 04:22:20;;;;;;;68.60;28.92;;;4.40;99.90;;;;;;5047201;28;20109;-80
2022/01/16 04:24:46;;;;;;;59.33;27.50;;;4.50;99.90;;;;;;5081679;28;20113;-82
2022/01/16 04:27:13;;;;;;;58.45;29.42;;;4.50;99.90;;;;;;5064382;28;20397;-81
2022/01/16 04:29:40;;;;;;;63.70;27.45;;;5.10;99.90;;;;;;5064243;28;20454;-81
2022/01/16 04:32:06;;;;;;;57.47;27.45;;;4.60;99.90;;;;;;5061897;28;20048;-82
2022/01/16 04:34:32;;;;;;;59.28;27.40;;;4.60;99.90;;;;;;5080587;28;20122;-81
2022/01/16 04:36:57;;;;;;;56.10;28.35;;;5.00;99.90;;;;;;5063464;28;20545;-81
2022/01/16 04:39:31;;;;;;;57.50;28.15;;;4.50;99.90;;;;;;5064827;28;20079;-82
2022/01/16 04:44:41;;;;;;;54.70;28.40;;;4.70;99.90;;;;;;5081952;28;20135;-81
2022/01/16 04:47:07;;;;;;;53.97;27.33;;;4.60;99.90;;;;;;5079618;28;20126;-81
2022/01/16 04:49:33;;;;;;;60.65;28.27;;;4.90;99.90;;;;;;5048844;28;20052;-80
2022/01/16 04:51:59;;;;;;;57.83;27.63;;;5.60;99.90;;;;;;5045709;28;20056;-81
2022/01/16 04:54:27;;;;;;;57.72;29.00;;;5.40;99.90;;;;;;5081471;28;20943;-81
2022/01/16 04:56:53;;;;;;;57.10;27.58;;;5.60;99.90;;;;;;5064286;28;20060;-81
2022/01/16 04:59:19;;;;;;;52.25;27.27;;;4.80;99.90;;;;;;5048130;28;20079;-81
2022/01/16 05:01:45;;;;;;;54.38;25.88;;;5.20;99.90;;;;;;5062921;28;20136;-82
2022/01/16 05:04:12;;;;;;;52.05;26.17;;;6.00;99.90;;;;;;5046859;28;20426;-81
2022/01/16 05:06:38;;;;;;;53.80;26.13;;;6.30;99.90;;;;;;5064351;28;20083;-81
2022/01/16 05:09:03;;;;;;;47.38;24.38;;;4.90;99.90;;;;;;5063391;28;20133;-80
2022/01/16 05:11:29;;;;;;;42.63;24.65;;;4.90;99.90;;;;;;5080140;28;20079;-81
2022/01/16 05:16:38;;;;;;;40.25;24.73;;;6.00;99.90;;;;;;5079913;28;20117;-81
2022/01/16 05:19:12;;;;;;;40.30;25.85;;;5.20;99.90;;;;;;5063705;28;20039;-79
2022/01/16 05:21:40;;;;;;;44.95;26.58;;;5.00;99.90;;;;;;5062007;28;20052;-80
2022/01/16 05:24:10;;;;;;;42.28;25.60;;;6.10;99.90;;;;;;5079861;28;20056;-80
2022/01/16 05:26:45;;;;;;;43.72;26.17;;;5.10;99.90;;;;;;5080769;28;20074;-79
2022/01/16 05:29:12;;;;;;;43.35;25.38;;;5.10;99.90;;;;;;5086966;28;20100;-79
2022/01/16 05:31:44;;;;;;;43.72;27.02;;;5.10;99.90;;;;;;5063754;28;20383;-80
2022/01/16 05:34:14;;;;;;;42.67;26.55;;;5.10;99.90;;;;;;5063519;28;20374;-79
2022/01/16 05:36:40;;;;;;;42.83;25.45;;;5.10;99.90;;;;;;5079124;28;20533;-79
2022/01/16 05:39:06;;;;;;;44.72;26.75;;;5.20;99.90;;;;;;5063000;28;20135;-80
2022/01/16 05:41:32;;;;;;;40.92;25.98;;;5.20;99.90;;;;;;5062644;28;20420;-79
2022/01/16 05:43:57;;;;;;;44.83;25.83;;;6.20;99.90;;;;;;5029786;28;20144;-79
2022/01/16 05:46:23;;;;;;;42.00;25.83;;;6.00;99.90;;;;;;5063499;28;20055;-80
2022/01/16 05:48:50;;;;;;;40.30;24.20;;;6.40;99.90;;;;;;5079224;28;20556;-81
2022/01/16 05:51:16;;;;;;;36.40;23.70;;;5.20;99.90;;;;;;5045833;28;20044;-80
2022/01/16 05:53:44;;;;;;;35.35;22.73;;;5.20;99.90;;;;;;5044970;28;20039;-79
2022/01/16 05:56:12;;;;;;;42.72;23.77;;;5.80;99.90;;;;;;5046998;28;20402;-80
2022/01/16 05:58:38;;;;;;;34.05;22.30;;;5.60;99.90;;;;;;5030956;28;20052;-80
2022/01/16 06:01:04;;;;;;;35.45;23.25;;;6.30;99.90;;;;;;5061993;28;20113;-80
2022/01/16 06:03:30;;;;;;;39.20;22.88;;;5.40;99.90;;;;;;5079802;28;20043;-79
2022/01/16 06:05:56;;;;;;;34.70;22.83;;;5.20;99.90;;;;;;5061774;28;20047;-80
2022/01/16 06:08:21;;;;;;;33.47;20.90;;;5.20;99.90;;;;;;5046926;28;20394;-80
2022/01/16 06:10:47;;;;;;;32.38;19.88;;;5.40;99.90;;;;;;5045676;28;20119;-80
2022/01/16 06:13:14;;;;;;;33.67;18.95;;;5.20;99.90;;;;;;5078659;28;20043;-79
2022/01/16 06:15:40;;;;;;;31.33;17.00;;;5.20;99.90;;;;;;5079593;28;20465;-79
2022/01/16 06:18:07;;;;;;;30.48;16.83;;;5.20;99.90;;;;;;5046163;28;20101;-79
2022/01/16 06:20:33;;;;;;;28.40;16.00;;;6.10;99.90;;;;;;5062604;28;20055;-79
2022/01/16 06:23:00;;;;;;;28.23;16.40;;;5.30;99.90;;;;;;5028735;28;20048;-79
2022/01/16 06:25:26;;;;;;;32.38;16.58;;;6.30;99.90;;;;;;5078685;28;20064;-80
2022/01/16 06:27:52;;;;;;;30.02;16.08;;;5.30;99.90;;;;;;5061787;28;20044;-80
2022/01/16 06:30:19;;;;;;;28.83;15.38;;;5.50;99.90;;;;;;5061390;28;20068;-80
2022/01/16 06:32:45;;;;;;;27.27;17.00;;;5.20;99.90;;;;;;5062157;28;20059;-79
2022/01/16 06:35:13;;;;;;;34.38;17.88;;;5.20;99.90;;;;;;5044147;28;20257;-79
2022/01/16 06:37:39;;;;;;;29.83;16.25;;;5.90;99.90;;;;;;5063019;28;20044;-80
2022/01/16 06:40:06;;;;;;;24.58;14.15;;;5.30;99.90;;;;;;5061010;28;20678;-80
2022/01/16 06:42:32;;;;;;;26.60;13.82;;;5.30;99.90;;;;;;5062782;28;20075;-79
2022/01/16 06:44:58;;;;;;;21.35;12.65;;;6.20;99.90;;;;;;5060870;28;20044;-80
2022/01/16 06:47:24;;;;;;;19.98;11.60;;;5.30;99.90;;;;;;5046449;28;20511;-79
2022/01/16 06:49:49;;;;;;;23.40;11.95;;;5.30;99.90;;;;;;5028618;28;20044;-79
2022/01/16 06:52:16;;;;;;;21.33;12.20;;;5.40;99.90;;;;;;5061133;28;20044;-79
2022/01/16 06:54:41;;;;;;;18.65;11.90;;;5.90;99.90;;;;;;5046514;28;20059;-80
2022/01/16 06:57:08;;;;;;;22.50;12.70;;;5.50;99.90;;;;;;5078550;28;20051;-80
2022/01/16 06:59:35;;;;;;;23.40;11.90;;;5.90;99.90;;;;;;5061715;28;20055;-79
2022/01/16 07:02:01;;;;;;;18.88;12.82;;;6.00;99.90;;;;;;5061364;28;20052;-79
2022/01/16 07:04:27;;;;;;;22.40;13.65;;;5.40;99.90;;;;;;5078323;28;20696;-79
2022/01/16 07:06:53;;;;;;;25.13;12.57;;;5.40;99.90;;;;;;5045796;28;20036;-79
2022/01/16 07:09:19;;;;;;;22.85;13.32;;;5.40;99.90;;;;;;5077307;28;20048;-79
2022/01/16 07:11:44;;;;;;;23.45;13.02;;;5.70;99.90;;;;;;5047382;28;20055;-80
2022/01/16 07:14:10;;;;;;;23.88;14.27;;;6.10;99.90;;;;;;5048185;28;20056;-78
2022/01/16 07:16:36;;;;;;;25.30;13.70;;;5.40;99.90;;;;;;5065254;28;20048;-78
2022/01/16 07:19:01;;;;;;;25.13;14.18;;;6.30;99.90;;;;;;5032766;28;20055;-79
2022/01/16 07:21:27;;;;;;;26.92;14.65;;;6.40;99.90;;;;;;5065122;28;20047;-79
2022/01/16 07:23:53;;;;;;;29.70;15.60;;;6.20;99.90;;;;;;5049534;28;20115;-79
2022/01/16 07:26:19;;;;;;;24.70;14.63;;;5.60;99.90;;;;;;5064507;28;20048;-80
2022/01/16 07:28:45;;;;;;;29.95;15.15;;;6.00;99.90;;;;;;5065313;28;20040;-80
2022/01/16 07:31:12;;;;;;;24.67;13.98;;;5.40;99.90;;;;;;5065026;28;20067;-80
2022/01/16 07:33:38;;;;;;;24.10;13.60;;;5.40;99.90;;;;;;5083343;28;20217;-79
2022/01/16 07:36:04;;;;;;;23.45;13.70;;;5.50;99.90;;;;;;5048327;28;20542;-79
2022/01/16 07:38:31;;;;;;;22.25;12.45;;;5.50;99.90;;;;;;5048433;28;20386;-79
2022/01/16 07:40:57;;;;;;;24.75;13.02;;;5.50;99.90;;;;;;5065382;28;20051;-79
2022/01/16 07:43:23;;;;;;;20.55;12.75;;;5.70;99.90;;;;;;5049089;28;20048;-80
2022/01/16 07:45:50;;;;;;;25.20;14.05;;;5.90;99.90;;;;;;5048139;28;20044;-80
2022/01/16 07:48:16;;;;;;;23.73;14.05;;;5.60;99.90;;;;;;5064258;28;20044;-80
2022/01/16 07:50:41;;;;;;;26.50;13.50;;;5.70;99.90;;;;;;5064775;28;20052;-80
2022/01/16 07:53:07;;;;;;;27.33;13.73;;;6.30;99.90;;;;;;5048064;28;20047;-80
2022/01/16 07:55:33;;;;;;;26.48;14.68;;;5.70;99.90;;;;;;5048563;28;20485;-80
2022/01/16 07:57:59;;;;;;;27.58;14.80;;;5.70;99.90;;;;;;5048165;28;20032;-79
2022/01/16 08:00:26;;;;;;;27.65;15.55;;;5.70;99.90;;;;;;5063906;28;20040;-79
2022/01/16 08:02:53;;;;;;;27.30;15.25;;;5.70;99.90;;;;;;5081128;28;20047;-80
2022/01/16 08:05:20;;;;;;;33.13;16.50;;;5.80;99.90;;;;;;5081646;28;20055;-80
2022/01/16 08:07:46;;;;;;;28.52;15.13;;;5.80;99.90;;;;;;5065610;28;20411;-80
2022/01/16 08:10:12;;;;;;;30.75;16.08;;;6.10;99.90;;;;;;5062683;28;20591;-80
2022/01/16 08:12:38;;;;;;;31.15;16.98;;;5.80;99.90;;;;;;5064398;28;20123;-81
2022/01/16 08:15:06;;;;;;;34.90;16.35;;;5.70;99.90;;;;;;5063692;28;20119;-81
2022/01/16 08:17:32;;;;;;;29.23;16.98;;;5.70;99.90;;;;;;5047367;28;20052;-79
2022/01/16 08:19:59;;;;;;;31.98;16.27;;;5.80;99.90;;;;;;5065965;28;20043;-78
2022/01/16 08:22:25;;;;;;;35.70;15.65;;;5.70;99.90;;;;;;5047092;28;20135;-78
2022/01/16 08:24:51;;;;;;;30.33;15.13;;;5.80;99.90;;;;;;5065163;28;20132;-79
2022/01/16 08:27:16;;;;;;;31.42;16.27;;;5.80;99.90;;;;;;5060646;28;20044;-77
2022/01/16 08:29:43;;;;;;;29.30;15.23;;;6.80;99.90;;;;;;5084135;28;20500;-79
2022/01/16 08:32:09;;;;;;;35.28;16.38;;;5.90;99.90;;;;;;5066264;28;20044;-78
2022/01/16 08:34:35;;;;;;;29.60;15.05;;;5.80;99.90;;;;;;5047102;28;20367;-78
2022/01/16 08:37:02;;;;;;;30.92;15.57;;;5.80;99.90;;;;;;5062994;28;20052;-78
2022/01/16 08:39:28;;;;;;;28.98;14.45;;;5.80;99.90;;;;;;5065703;28;20055;-78
2022/01/16 08:41:54;;;;;;;29.30;14.80;;;5.80;99.90;;;;;;5063157;28;20040;-79
2022/01/16 08:44:19;;;;;;;24.90;12.70;;;5.80;99.90;;;;;;5063855;28;20387;-80
2022/01/16 08:46:46;;;;;;;29.33;13.88;;;6.30;99.90;;;;;;5064590;28;20044;-80
2022/01/16 08:49:12;;;;;;;29.90;13.18;;;5.80;99.90;;;;;;5062644;28;20052;-80
2022/01/16 08:51:37;;;;;;;24.92;12.93;;;5.90;99.90;;;;;;5078403;28;20040;-80
2022/01/16 08:54:04;;;;;;;24.83;12.05;;;5.90;99.90;;;;;;5030733;28;20123;-80
2022/01/16 08:56:29;;;;;;;27.33;12.95;;;5.90;99.90;;;;;;5046455;28;20044;-81
2022/01/16 08:58:55;;;;;;;26.77;11.82;;;6.70;99.90;;;;;;5064183;28;20545;-80
2022/01/16 09:01:21;;;;;;;23.92;11.73;;;5.90;99.90;;;;;;5061823;28;20036;-79
2022/01/16 09:03:47;;;;;;;26.33;11.35;;;7.20;99.90;;;;;;5047609;28;20054;-80
2022/01/16 09:06:14;;;;;;;19.73;10.52;;;5.90;99.90;;;;;;5062376;28;20048;-83
2022/01/16 09:08:40;;;;;;;24.95;10.88;;;5.90;99.90;;;;;;5030672;28;20101;-79
2022/01/16 09:11:07;;;;;;;22.58;10.70;;;5.90;99.90;;;;;;5063756;28;20452;-81
2022/01/16 09:13:33;;;;;;;24.00;10.35;;;6.60;99.90;;;;;;5064004;28;20054;-80
2022/01/16 09:15:59;;;;;;;21.83;9.55;;;5.90;99.90;;;;;;5079957;28;20048;-80
2022/01/16 09:18:25;;;;;;;19.55;9.50;;;6.00;99.90;;;;;;5080183;28;20044;-80
2022/01/16 09:20:53;;;;;;;21.30;9.35;;;6.00;99.90;;;;;;5078327;28;20534;-80
2022/01/16 09:23:20;;;;;;;20.02;8.88;;;6.20;99.90;;;;;;5078860;28;20047;-81
2022/01/16 09:25:46;;;;;;;14.38;7.65;;;6.00;99.90;;;;;;5063522;28;20052;-81
2022/01/16 09:28:12;;;;;;;23.13;8.45;;;7.00;99.90;;;;;;5062780;28;20055;-81
2022/01/16 09:30:37;;;;;;;16.38;8.13;;;6.00;99.90;;;;;;5068219;28;20048;-81
2022/01/16 09:33:03;;;;;;;28.45;8.73;;;6.00;99.90;;;;;;5052449;28;20106;-80
2022/01/16 09:35:33;;;;;;;19.40;7.70;;;6.00;99.90;;;;;;5068311;28;20055;-81
2022/01/16 09:38:02;;;;;;;19.83;7.55;;;6.00;99.90;;;;;;5052284;28;20105;-80
2022/01/16 09:40:28;;;;;;;14.98;7.25;;;6.10;99.90;;;;;;5044083;28;20064;-80
2022/01/16 09:42:55;;;;;;;16.15;7.03;;;6.90;99.90;;;;;;5068408;28;20775;-81
2022/01/16 09:45:21;;;;;;;20.33;7.03;;;6.10;99.90;;;;;;5051192;28;20045;-81
2022/01/16 09:47:48;;;;;;;18.45;6.85;;;6.10;99.90;;;;;;5051635;28;20048;-81
2022/01/16 09:50:20;;;;;;;19.45;7.43;;;7.50;99.90;;;;;;5066848;28;20045;-81
2022/01/16 09:52:47;;;;;;;20.38;6.43;;;6.10;99.90;;;;;;5068639;28;20084;-80
2022/01/16 09:55:13;;;;;;;15.70;5.72;;;6.70;99.90;;;;;;5051440;28;20072;-80
2022/01/16 09:57:40;;;;;;;14.05;5.72;;;6.20;99.90;;;;;;5035269;28;20045;-81
2022/01/16 10:00:09;;;;;;;15.95;5.80;;;7.00;99.90;;;;;;5067835;28;20051;-81
2022/01/16 10:02:35;;;;;;;17.02;5.65;;;6.20;99.90;;;;;;5043160;28;20052;-81
2022/01/16 10:05:01;;;;;;;13.27;4.88;;;6.20;99.90;;;;;;5051674;28;20052;-80
2022/01/16 10:07:27;;;;;;;15.88;5.70;;;6.20;99.90;;;;;;5066968;28;20040;-80
2022/01/16 10:10:12;;;;;;;19.92;5.78;;;6.20;99.90;;;;;;5050947;28;20055;-81
2022/01/16 10:12:48;;;;;;;19.02;5.95;;;6.20;99.90;;;;;;5050232;28;20045;-80
2022/01/16 10:15:24;;;;;;;16.33;6.05;;;6.30;99.90;;;;;;5050397;28;20123;-82
2022/01/16 10:18:00;;;;;;;17.50;5.90;;;6.30;99.90;;;;;;5050948;28;20501;-79
2022/01/16 10:20:28;;;;;;;20.40;5.93;;;6.30;99.90;;;;;;5066532;28;20127;-80
2022/01/16 10:22:56;;;;;;;19.17;6.25;;;6.30;99.90;;;;;;5050325;28;20053;-80
2022/01/16 10:25:44;;;;;;;18.60;6.43;;;6.30;99.90;;;;;;5049985;28;20068;-80
2022/01/16 10:28:18;;;;;;;19.30;6.90;;;6.30;99.90;;;;;;5034738;28;20041;-80
2022/01/16 10:30:48;;;;;;;16.52;5.65;;;6.30;99.90;;;;;;5075956;28;20138;-80
2022/01/16 10:33:20;;;;;;;18.92;7.10;;;6.30;99.90;;;;;;5058934;28;20049;-81
2022/01/16 10:35:48;;;;;;;16.98;6.47;;;6.40;99.90;;;;;;5060595;28;20513;-80
2022/01/16 10:38:28;;;;;;;14.70;6.57;;;6.40;99.90;;;;;;5077129;28;20105;-80
2022/01/16 10:40:56;;;;;;;12.65;5.93;;;6.40;99.90;;;;;;5059723;28;20097;-80
2022/01/16 10:43:43;;;;;;;17.10;6.40;;;6.40;99.90;;;;;;5059442;28;20056;-81
2022/01/16 10:46:11;;;;;;;16.48;6.55;;;6.50;99.90;;;;;;5060017;28;20048;-80
2022/01/16 10:48:37;;;;;;;16.63;6.75;;;6.50;99.90;;;;;;5042740;28;20115;-80
2022/01/16 10:51:03;;;;;;;15.80;6.03;;;6.60;99.90;;;;;;5026524;28;20402;-80
2022/01/16 10:53:31;;;;;;;22.80;6.97;;;6.60;99.90;;;;;;5058813;28;20056;-79
2022/01/16 10:55:59;;;;;;;20.90;7.07;;;7.00;99.90;;;;;;5060562;28;20044;-81
2022/01/16 10:58:51;;;;;;;16.42;7.00;;;6.60;99.90;;;;;;5076402;28;20622;-80
2022/01/16 11:01:19;;;;;;;13.57;6.70;;;6.60;99.90;;;;;;5038395;28;20084;-82
2022/01/16 11:03:50;;;;;;;15.98;7.13;;;5.60;99.90;;;;;;5043631;28;20055;-81
2022/01/16 11:06:18;;;;;;;16.52;6.80;;;6.60;99.90;;;;;;5072687;28;20044;-82
2022/01/16 11:08:56;;;;;;;15.57;7.45;;;6.60;99.90;;;;;;5060346;28;20044;-81
2022/01/16 11:11:26;;;;;;;15.63;7.05;;;6.60;99.90;;;;;;5058557;28;20534;-81
2022/01/16 11:13:54;;;;;;;13.45;7.13;;;6.60;99.90;;;;;;5076786;28;20104;-80
2022/01/16 11:16:22;;;;;;;16.92;7.22;;;6.60;99.90;;;;;;5059369;28;20483;-81
2022/01/16 11:18:50;;;;;;;15.40;7.10;;;6.60;99.90;;;;;;5060609;28;20455;-81
2022/01/16 11:21:30;;;;;;;19.92;7.55;;;6.60;99.90;;;;;;5043250;28;20127;-80
2022/01/16 11:24:22;;;;;;;16.60;7.47;;;6.80;99.90;;;;;;5060243;28;20052;-81
2022/01/16 11:26:47;;;;;;;16.48;7.10;;;6.60;99.90;;;;;;5062557;28;20431;-81
2022/01/16 11:29:13;;;;;;;14.07;6.70;;;6.60;99.90;;;;;;5056058;28;20065;-81
2022/01/16 11:31:40;;;;;;;13.02;6.25;;;6.70;99.90;;;;;;5049627;28;20576;-80
2022/01/16 11:34:06;;;;;;;18.00;6.22;;;6.60;99.90;;;;;;5041814;28;20405;-81
2022/01/16 11:36:32;;;;;;;16.42;6.65;;;6.60;99.90;;;;;;5049061;28;20047;-80
2022/01/16 11:39:01;;;;;;;14.20;6.68;;;6.60;99.90;;;;;;5033653;28;20040;-81
2022/01/16 11:41:34;;;;;;;13.02;5.55;;;6.60;99.90;;;;;;5047939;28;20049;-80
2022/01/16 11:44:19;;;;;;;17.23;7.00;;;6.70;99.90;;;;;;5066515;28;20048;-80
2022/01/16 11:46:50;;;;;;;14.20;6.45;;;6.60;99.90;;;;;;5065834;28;20110;-81
2022/01/16 11:49:19;;;;;;;18.15;6.57;;;6.70;99.90;;;;;;5066219;28;20051;-81
2022/01/16 11:51:51;;;;;;;17.05;6.53;;;6.60;99.90;;;;;;5064518;28;20056;-80
2022/01/16 11:54:25;;;;;;;16.00;6.88;;;6.60;99.90;;;;;;5065728;28;20488;-80
2022/01/16 11:56:51;;;;;;;16.50;6.38;;;6.70;99.90;;;;;;5067112;28;20123;-80
2022/01/16 11:59:28;;;;;;;15.23;6.35;;;6.60;99.90;;;;;;5069896;28;20046;-82
2022/01/16 12:02:01;;;;;;;15.93;6.38;;;6.60;99.90;;;;;;5053403;28;20051;-81
2022/01/16 12:04:29;;;;;;;13.30;6.80;;;6.60;99.90;;;;;;5069439;28;20052;-81
2022/01/16 12:06:56;;;;;;;13.63;5.50;;;6.60;99.90;;;;;;5070432;28;20456;-80
2022/01/16 12:12:14;;;;;;;10.93;5.35;;;6.60;99.90;;;;;;5069645;28;20060;-81
2022/01/16 12:14:53;;;;;;;13.85;5.82;;;6.60;99.90;;;;;;5053053;28;20048;-80
2022/01/16 12:17:40;;;;;;;14.07;6.35;;;6.60;99.90;;;;;;5069855;28;20041;-81
2022/01/16 12:20:12;;;;;;;12.32;5.63;;;6.70;99.90;;;;;;5069815;28;20060;-81
2022/01/16 12:23:02;;;;;;;13.00;5.82;;;6.60;99.90;;;;;;5068149;28;20056;-80
2022/01/16 12:25:36;;;;;;;11.70;5.25;;;6.70;99.90;;;;;;5069539;28;20053;-81
2022/01/16 12:28:13;;;;;;;13.63;5.88;;;6.60;99.90;;;;;;5070180;28;20045;-80
2022/01/16 12:30:51;;;;;;;12.88;5.97;;;6.60;99.90;;;;;;5067899;28;20134;-80
2022/01/16 12:33:26;;;;;;;15.05;6.22;;;6.60;99.90;;;;;;5062260;28;20096;-80
2022/01/16 12:35:54;;;;;;;18.65;5.43;;;6.60;99.90;;;;;;5069387;28;20040;-80
2022/01/16 12:38:30;;;;;;;17.52;6.13;;;6.60;99.90;;;;;;5052992;28;20052;-80
2022/01/16 12:41:19;;;;;;;16.13;6.50;;;6.60;99.90;;;;;;5068740;28;20059;-81
2022/01/16 12:44:12;;;;;;;13.43;5.93;;;6.50;99.90;;;;;;5045523;28;20044;-80
2022/01/16 12:46:44;;;;;;;12.85;6.43;;;6.50;99.90;;;;;;5052174;28;20059;-81
2022/01/16 12:49:17;;;;;;;18.33;6.78;;;7.00;99.90;;;;;;5052144;28;20489;-81
2022/01/16 12:51:46;;;;;;;14.57;5.88;;;6.50;99.90;;;;;;5044269;28;20052;-80
2022/01/16 12:54:14;;;;;;;19.20;7.50;;;6.50;99.90;;;;;;5051776;28;20122;-80
2022/01/16 12:56:42;;;;;;;19.08;7.50;;;6.50;99.90;;;;;;5068137;28;20129;-80
2022/01/16 12:59:14;;;;;;;14.40;6.90;;;6.60;99.90;;;;;;5052443;28;20052;-80
2022/01/16 13:01:49;;;;;;;25.08;7.22;;;6.60;99.90;;;;;;5051380;28;20052;-80
2022/01/16 13:04:22;;;;;;;18.98;7.00;;;6.60;99.90;;;;;;5068482;28;20052;-81
2022/01/16 13:06:49;;;;;;;11.52;6.75;;;6.70;99.90;;;;;;5044519;28;20121;-80
2022/01/16 13:09:14;;;;;;;16.40;7.50;;;6.70;99.90;;;;;;5051017;28;20045;-80
2022/01/16 13:11:42;;;;;;;18.67;6.45;;;6.70;99.90;;;;;;5052665;28;20052;-80
2022/01/16 13:14:12;;;;;;;19.92;7.13;;;6.70;99.90;;;;;;5044626;28;20049;-80
2022/01/16 13:16:49;;;;;;;17.08;7.65;;;6.70;99.90;;;;;;5044142;28;20124;-80
2022/01/16 13:19:19;;;;;;;16.52;7.85;;;6.80;99.90;;;;;;5068475;28;20052;-80
2022/01/16 13:24:37;;;;;;;17.35;8.35;;;6.80;99.90;;;;;;5053367;28;20059;-80
2022/01/16 13:27:13;;;;;;;17.65;8.63;;;6.70;99.90;;;;;;5069213;28;20072;-80
2022/01/16 13:29:41;;;;;;;16.85;8.65;;;6.80;99.90;;;;;;5047948;28;20460;-81
2022/01/16 13:32:09;;;;;;;19.70;8.23;;;6.90;99.90;;;;;;5061726;28;20699;-80
2022/01/16 13:34:54;;;;;;;21.13;8.90;;;6.70;99.90;;;;;;5062077;28;20052;-81